sensor_id;sensor_type;location;lat;lon;timestamp;P1;durP1;ratioP1;P2;durP2;ratioP2
37299;SDS011;23184;51.902;12.836;2023-11-18T00:00:22;6.93;;;4.05;;
37299;SDS011;23184;51.902;12.836;2023-11-18T00:02:48;8.30;;;4.20;;
37299;SDS011;23184;51.902;12.836;2023-11-18T00:05:14;7.15;;;4.38;;
37299;SDS011;23184;51.902;12.836;2023-11-18T00:07:40;7.55;;;3.63;;
37299;SDS011;23184;51.902;12.836;2023-11-18T00:10:07;8.48;;;4.45;;
37299;SDS011;23184;51.902;12.836;2023-11-18T00:12:33;8.90;;;4.50;;
37299;SDS011;23184;51.902;12.836;2023-11-18T00:15:04;8.40;;;4.63;;
37299;SDS011;23184;51.902;12.836;2023-11-18T00:17:30;7.10;;;4.03;;
37299;SDS011;23184;51.902;12.836;2023-11-18T00:19:57;9.85;;;4.45;;
37299;SDS011;23184;51.902;12.836;2023-11-18T00:22:22;10.98;;;5.40;;
37299;SDS011;23184;51.902;12.836;2023-11-18T00:24:48;7.95;;;4.43;;
37299;SDS011;23184;51.902;12.836;2023-11-18T00:27:13;8.48;;;4.20;;
37299;SDS011;23184;51.902;12.836;2023-11-18T00:29:40;9.27;;;4.38;;
37299;SDS011;23184;51.902;12.836;2023-11-18T00:32:05;8.07;;;4.40;;
37299;SDS011;23184;51.902;12.836;2023-11-18T00:34:32;7.47;;;4.32;;
37299;SDS011;23184;51.902;12.836;2023-11-18T00:37:00;8.77;;;4.75;;
37299;SDS011;23184;51.902;12.836;2023-11-18T00:39:26;7.57;;;4.13;;
37299;SDS011;23184;51.902;12.836;2023-11-18T00:41:52;10.13;;;4.90;;
37299;SDS011;23184;51.902;12.836;2023-11-18T00:44:18;10.00;;;4.60;;
37299;SDS011;23184;51.902;12.836;2023-11-18T00:46:43;9.75;;;5.18;;
37299;SDS011;23184;51.902;12.836;2023-11-18T00:49:09;8.23;;;4.68;;
37299;SDS011;23184;51.902;12.836;2023-11-18T00:51:36;7.80;;;4.68;;
37299;SDS011;23184;51.902;12.836;2023-11-18T00:54:03;8.30;;;4.70;;
37299;SDS011;23184;51.902;12.836;2023-11-18T00:56:32;7.20;;;4.70;;
37299;SDS011;23184;51.902;12.836;2023-11-18T00:58:57;8.18;;;4.72;;
37299;SDS011;23184;51.902;12.836;2023-11-18T01:01:23;8.25;;;4.97;;
37299;SDS011;23184;51.902;12.836;2023-11-18T01:03:49;10.10;;;4.57;;
37299;SDS011;23184;51.902;12.836;2023-11-18T01:06:14;9.15;;;4.90;;
37299;SDS011;23184;51.902;12.836;2023-11-18T01:08:40;8.40;;;4.75;;
37299;SDS011;23184;51.902;12.836;2023-11-18T01:11:09;9.27;;;4.85;;
37299;SDS011;23184;51.902;12.836;2023-11-18T01:13:34;8.75;;;4.95;;
37299;SDS011;23184;51.902;12.836;2023-11-18T01:16:00;8.23;;;5.38;;
37299;SDS011;23184;51.902;12.836;2023-11-18T01:18:26;8.85;;;4.95;;
37299;SDS011;23184;51.902;12.836;2023-11-18T01:20:52;8.68;;;5.03;;
37299;SDS011;23184;51.902;12.836;2023-11-18T01:23:18;8.73;;;4.78;;
37299;SDS011;23184;51.902;12.836;2023-11-18T01:25:44;9.25;;;4.80;;
37299;SDS011;23184;51.902;12.836;2023-11-18T01:28:09;8.60;;;4.70;;
37299;SDS011;23184;51.902;12.836;2023-11-18T01:30:35;10.15;;;4.97;;
37299;SDS011;23184;51.902;12.836;2023-11-18T01:33:01;7.90;;;4.85;;
37299;SDS011;23184;51.902;12.836;2023-11-18T01:35:27;8.63;;;4.68;;
37299;SDS011;23184;51.902;12.836;2023-11-18T01:37:53;7.70;;;4.55;;
37299;SDS011;23184;51.902;12.836;2023-11-18T01:40:19;8.52;;;4.57;;
37299;SDS011;23184;51.902;12.836;2023-11-18T01:42:45;9.50;;;4.60;;
37299;SDS011;23184;51.902;12.836;2023-11-18T01:45:12;12.27;;;4.90;;
37299;SDS011;23184;51.902;12.836;2023-11-18T01:47:39;8.35;;;4.70;;
37299;SDS011;23184;51.902;12.836;2023-11-18T01:50:06;7.72;;;4.72;;
37299;SDS011;23184;51.902;12.836;2023-11-18T01:52:35;8.77;;;4.60;;
37299;SDS011;23184;51.902;12.836;2023-11-18T01:55:01;8.32;;;4.93;;
37299;SDS011;23184;51.902;12.836;2023-11-18T01:57:32;9.90;;;5.35;;
37299;SDS011;23184;51.902;12.836;2023-11-18T02:00:02;9.10;;;4.80;;
37299;SDS011;23184;51.902;12.836;2023-11-18T02:02:31;9.18;;;4.57;;
37299;SDS011;23184;51.902;12.836;2023-11-18T02:04:58;10.15;;;5.63;;
37299;SDS011;23184;51.902;12.836;2023-11-18T02:07:26;11.18;;;5.63;;
37299;SDS011;23184;51.902;12.836;2023-11-18T02:09:53;10.75;;;4.93;;
37299;SDS011;23184;51.902;12.836;2023-11-18T02:14:49;8.65;;;5.50;;
37299;SDS011;23184;51.902;12.836;2023-11-18T02:17:16;10.45;;;5.90;;
37299;SDS011;23184;51.902;12.836;2023-11-18T02:19:45;11.18;;;5.30;;
37299;SDS011;23184;51.902;12.836;2023-11-18T02:22:11;9.90;;;5.50;;
37299;SDS011;23184;51.902;12.836;2023-11-18T02:24:38;10.90;;;5.28;;
37299;SDS011;23184;51.902;12.836;2023-11-18T02:27:06;9.98;;;5.82;;
37299;SDS011;23184;51.902;12.836;2023-11-18T02:29:36;9.38;;;5.78;;
37299;SDS011;23184;51.902;12.836;2023-11-18T02:32:06;11.95;;;6.35;;
37299;SDS011;23184;51.902;12.836;2023-11-18T02:35:09;9.85;;;5.65;;
37299;SDS011;23184;51.902;12.836;2023-11-18T02:37:42;11.13;;;5.18;;
37299;SDS011;23184;51.902;12.836;2023-11-18T02:40:16;10.63;;;4.88;;
37299;SDS011;23184;51.902;12.836;2023-11-18T02:43:04;10.10;;;5.78;;
37299;SDS011;23184;51.902;12.836;2023-11-18T02:45:31;9.32;;;5.35;;
37299;SDS011;23184;51.902;12.836;2023-11-18T02:47:57;11.88;;;5.65;;
37299;SDS011;23184;51.902;12.836;2023-11-18T02:50:26;10.32;;;6.00;;
37299;SDS011;23184;51.902;12.836;2023-11-18T02:52:55;10.50;;;5.75;;
37299;SDS011;23184;51.902;12.836;2023-11-18T02:55:20;10.30;;;6.50;;
37299;SDS011;23184;51.902;12.836;2023-11-18T02:57:47;10.80;;;5.72;;
37299;SDS011;23184;51.902;12.836;2023-11-18T03:00:14;13.10;;;6.55;;
37299;SDS011;23184;51.902;12.836;2023-11-18T03:02:44;18.35;;;7.10;;
37299;SDS011;23184;51.902;12.836;2023-11-18T03:05:11;12.15;;;6.30;;
37299;SDS011;23184;51.902;12.836;2023-11-18T03:07:40;12.55;;;7.05;;
37299;SDS011;23184;51.902;12.836;2023-11-18T03:10:07;12.07;;;7.03;;
37299;SDS011;23184;51.902;12.836;2023-11-18T03:12:37;12.45;;;7.18;;
37299;SDS011;23184;51.902;12.836;2023-11-18T03:15:04;12.50;;;6.68;;
37299;SDS011;23184;51.902;12.836;2023-11-18T03:17:30;12.00;;;6.75;;
37299;SDS011;23184;51.902;12.836;2023-11-18T03:19:56;11.93;;;6.72;;
37299;SDS011;23184;51.902;12.836;2023-11-18T03:22:21;13.77;;;6.90;;
37299;SDS011;23184;51.902;12.836;2023-11-18T03:24:48;14.02;;;7.45;;
37299;SDS011;23184;51.902;12.836;2023-11-18T03:27:14;13.43;;;7.15;;
37299;SDS011;23184;51.902;12.836;2023-11-18T03:29:40;14.55;;;7.55;;
37299;SDS011;23184;51.902;12.836;2023-11-18T03:32:06;15.50;;;8.45;;
37299;SDS011;23184;51.902;12.836;2023-11-18T03:34:31;12.45;;;7.18;;
37299;SDS011;23184;51.902;12.836;2023-11-18T03:36:57;13.93;;;7.28;;
37299;SDS011;23184;51.902;12.836;2023-11-18T03:39:22;12.13;;;6.55;;
37299;SDS011;23184;51.902;12.836;2023-11-18T03:41:48;12.98;;;6.63;;
37299;SDS011;23184;51.902;12.836;2023-11-18T03:44:14;13.07;;;7.13;;
37299;SDS011;23184;51.902;12.836;2023-11-18T03:46:40;14.90;;;7.10;;
37299;SDS011;23184;51.902;12.836;2023-11-18T03:49:07;14.05;;;7.03;;
37299;SDS011;23184;51.902;12.836;2023-11-18T03:51:32;12.43;;;6.65;;
37299;SDS011;23184;51.902;12.836;2023-11-18T03:53:58;14.93;;;7.28;;
37299;SDS011;23184;51.902;12.836;2023-11-18T03:56:23;13.55;;;7.68;;
37299;SDS011;23184;51.902;12.836;2023-11-18T03:58:51;11.63;;;6.60;;
37299;SDS011;23184;51.902;12.836;2023-11-18T04:01:25;14.05;;;7.13;;
37299;SDS011;23184;51.902;12.836;2023-11-18T04:03:54;13.95;;;6.72;;
37299;SDS011;23184;51.902;12.836;2023-11-18T04:06:20;13.30;;;6.40;;
37299;SDS011;23184;51.902;12.836;2023-11-18T04:08:46;14.23;;;7.47;;
37299;SDS011;23184;51.902;12.836;2023-11-18T04:11:13;14.10;;;7.05;;
37299;SDS011;23184;51.902;12.836;2023-11-18T04:13:42;14.95;;;7.35;;
37299;SDS011;23184;51.902;12.836;2023-11-18T04:16:14;17.83;;;7.65;;
37299;SDS011;23184;51.902;12.836;2023-11-18T04:18:44;15.20;;;7.80;;
37299;SDS011;23184;51.902;12.836;2023-11-18T04:21:10;18.50;;;7.88;;
37299;SDS011;23184;51.902;12.836;2023-11-18T04:23:38;17.95;;;8.35;;
37299;SDS011;23184;51.902;12.836;2023-11-18T04:26:05;19.95;;;8.93;;
37299;SDS011;23184;51.902;12.836;2023-11-18T04:28:32;18.50;;;8.45;;
37299;SDS011;23184;51.902;12.836;2023-11-18T04:30:58;18.50;;;8.20;;
37299;SDS011;23184;51.902;12.836;2023-11-18T04:33:24;16.08;;;7.22;;
37299;SDS011;23184;51.902;12.836;2023-11-18T04:35:50;19.63;;;8.60;;
37299;SDS011;23184;51.902;12.836;2023-11-18T04:38:16;18.77;;;8.85;;
37299;SDS011;23184;51.902;12.836;2023-11-18T04:40:42;17.33;;;8.48;;
37299;SDS011;23184;51.902;12.836;2023-11-18T04:43:09;17.27;;;8.40;;
37299;SDS011;23184;51.902;12.836;2023-11-18T04:45:35;16.02;;;8.60;;
37299;SDS011;23184;51.902;12.836;2023-11-18T04:48:01;22.33;;;10.25;;
37299;SDS011;23184;51.902;12.836;2023-11-18T04:50:28;17.42;;;9.07;;
37299;SDS011;23184;51.902;12.836;2023-11-18T04:52:55;17.77;;;8.45;;
37299;SDS011;23184;51.902;12.836;2023-11-18T04:55:21;16.13;;;8.02;;
37299;SDS011;23184;51.902;12.836;2023-11-18T04:57:47;16.67;;;8.48;;
37299;SDS011;23184;51.902;12.836;2023-11-18T05:00:12;14.63;;;7.72;;
37299;SDS011;23184;51.902;12.836;2023-11-18T05:02:42;15.70;;;8.30;;
37299;SDS011;23184;51.902;12.836;2023-11-18T05:05:08;18.42;;;9.88;;
37299;SDS011;23184;51.902;12.836;2023-11-18T05:07:34;16.67;;;8.80;;
37299;SDS011;23184;51.902;12.836;2023-11-18T05:10:00;15.25;;;7.95;;
37299;SDS011;23184;51.902;12.836;2023-11-18T05:12:26;16.48;;;7.72;;
37299;SDS011;23184;51.902;12.836;2023-11-18T05:14:54;18.63;;;7.70;;
37299;SDS011;23184;51.902;12.836;2023-11-18T05:17:21;16.08;;;8.73;;
37299;SDS011;23184;51.902;12.836;2023-11-18T05:19:47;17.02;;;8.40;;
37299;SDS011;23184;51.902;12.836;2023-11-18T05:22:13;17.95;;;8.55;;
37299;SDS011;23184;51.902;12.836;2023-11-18T05:24:38;17.48;;;8.85;;
37299;SDS011;23184;51.902;12.836;2023-11-18T05:27:04;15.57;;;7.80;;
37299;SDS011;23184;51.902;12.836;2023-11-18T05:29:30;13.30;;;7.38;;
37299;SDS011;23184;51.902;12.836;2023-11-18T05:31:57;16.33;;;8.65;;
37299;SDS011;23184;51.902;12.836;2023-11-18T05:34:22;14.57;;;8.23;;
37299;SDS011;23184;51.902;12.836;2023-11-18T05:36:48;13.50;;;7.65;;
37299;SDS011;23184;51.902;12.836;2023-11-18T05:39:16;15.25;;;8.35;;
37299;SDS011;23184;51.902;12.836;2023-11-18T05:41:42;16.88;;;8.48;;
37299;SDS011;23184;51.902;12.836;2023-11-18T05:44:10;26.52;;;12.00;;
37299;SDS011;23184;51.902;12.836;2023-11-18T05:46:42;56.63;;;25.90;;
37299;SDS011;23184;51.902;12.836;2023-11-18T05:49:11;16.13;;;8.77;;
37299;SDS011;23184;51.902;12.836;2023-11-18T05:51:38;15.98;;;7.90;;
37299;SDS011;23184;51.902;12.836;2023-11-18T05:54:05;18.75;;;8.45;;
37299;SDS011;23184;51.902;12.836;2023-11-18T05:56:31;16.13;;;8.48;;
37299;SDS011;23184;51.902;12.836;2023-11-18T05:58:57;18.13;;;9.18;;
37299;SDS011;23184;51.902;12.836;2023-11-18T06:01:23;17.52;;;8.38;;
37299;SDS011;23184;51.902;12.836;2023-11-18T06:03:52;15.80;;;8.70;;
37299;SDS011;23184;51.902;12.836;2023-11-18T06:06:18;20.83;;;9.82;;
37299;SDS011;23184;51.902;12.836;2023-11-18T06:08:44;19.40;;;9.98;;
37299;SDS011;23184;51.902;12.836;2023-11-18T06:11:12;18.40;;;9.15;;
37299;SDS011;23184;51.902;12.836;2023-11-18T06:13:39;19.33;;;9.65;;
37299;SDS011;23184;51.902;12.836;2023-11-18T06:16:15;20.77;;;10.25;;
37299;SDS011;23184;51.902;12.836;2023-11-18T06:18:41;21.20;;;10.55;;
37299;SDS011;23184;51.902;12.836;2023-11-18T06:21:10;21.00;;;9.57;;
37299;SDS011;23184;51.902;12.836;2023-11-18T06:23:40;22.80;;;11.15;;
37299;SDS011;23184;51.902;12.836;2023-11-18T06:26:06;24.42;;;10.63;;
37299;SDS011;23184;51.902;12.836;2023-11-18T06:28:35;20.75;;;11.18;;
37299;SDS011;23184;51.902;12.836;2023-11-18T06:31:01;23.60;;;11.73;;
37299;SDS011;23184;51.902;12.836;2023-11-18T06:33:27;28.23;;;13.25;;
37299;SDS011;23184;51.902;12.836;2023-11-18T06:35:53;28.20;;;13.25;;
37299;SDS011;23184;51.902;12.836;2023-11-18T06:38:20;25.60;;;12.23;;
37299;SDS011;23184;51.902;12.836;2023-11-18T06:40:46;27.05;;;12.23;;
37299;SDS011;23184;51.902;12.836;2023-11-18T06:43:11;25.15;;;12.10;;
37299;SDS011;23184;51.902;12.836;2023-11-18T06:45:41;25.02;;;12.13;;
37299;SDS011;23184;51.902;12.836;2023-11-18T06:48:08;26.85;;;12.63;;
37299;SDS011;23184;51.902;12.836;2023-11-18T06:50:34;27.52;;;13.23;;
37299;SDS011;23184;51.902;12.836;2023-11-18T06:53:00;26.85;;;11.82;;
37299;SDS011;23184;51.902;12.836;2023-11-18T06:55:26;27.90;;;12.98;;
37299;SDS011;23184;51.902;12.836;2023-11-18T06:57:52;32.10;;;12.75;;
37299;SDS011;23184;51.902;12.836;2023-11-18T07:00:19;27.55;;;13.10;;
37299;SDS011;23184;51.902;12.836;2023-11-18T07:02:46;25.95;;;12.45;;
37299;SDS011;23184;51.902;12.836;2023-11-18T07:05:12;28.40;;;12.77;;
37299;SDS011;23184;51.902;12.836;2023-11-18T07:07:39;27.75;;;11.77;;
37299;SDS011;23184;51.902;12.836;2023-11-18T07:10:05;25.63;;;12.50;;
37299;SDS011;23184;51.902;12.836;2023-11-18T07:12:32;27.58;;;12.63;;
37299;SDS011;23184;51.902;12.836;2023-11-18T07:14:59;27.38;;;13.45;;
37299;SDS011;23184;51.902;12.836;2023-11-18T07:17:26;24.25;;;11.70;;
37299;SDS011;23184;51.902;12.836;2023-11-18T07:19:51;24.42;;;13.07;;
37299;SDS011;23184;51.902;12.836;2023-11-18T07:22:16;28.73;;;12.85;;
37299;SDS011;23184;51.902;12.836;2023-11-18T07:24:42;23.80;;;13.10;;
37299;SDS011;23184;51.902;12.836;2023-11-18T07:27:08;25.33;;;12.23;;
37299;SDS011;23184;51.902;12.836;2023-11-18T07:29:36;22.85;;;11.73;;
37299;SDS011;23184;51.902;12.836;2023-11-18T07:32:02;22.85;;;11.85;;
37299;SDS011;23184;51.902;12.836;2023-11-18T07:34:31;21.77;;;12.32;;
37299;SDS011;23184;51.902;12.836;2023-11-18T07:36:58;24.92;;;11.48;;
37299;SDS011;23184;51.902;12.836;2023-11-18T07:39:23;21.38;;;10.75;;
37299;SDS011;23184;51.902;12.836;2023-11-18T07:42:01;21.63;;;11.35;;
37299;SDS011;23184;51.902;12.836;2023-11-18T07:44:26;22.63;;;11.07;;
37299;SDS011;23184;51.902;12.836;2023-11-18T07:46:52;23.20;;;11.73;;
37299;SDS011;23184;51.902;12.836;2023-11-18T07:49:18;20.58;;;11.15;;
37299;SDS011;23184;51.902;12.836;2023-11-18T07:51:44;23.17;;;12.13;;
37299;SDS011;23184;51.902;12.836;2023-11-18T07:54:09;21.20;;;11.52;;
37299;SDS011;23184;51.902;12.836;2023-11-18T07:56:35;20.77;;;10.63;;
37299;SDS011;23184;51.902;12.836;2023-11-18T07:59:01;20.30;;;10.82;;
37299;SDS011;23184;51.902;12.836;2023-11-18T08:01:28;20.23;;;10.52;;
37299;SDS011;23184;51.902;12.836;2023-11-18T08:03:55;23.08;;;10.63;;
37299;SDS011;23184;51.902;12.836;2023-11-18T08:06:20;24.38;;;11.82;;
37299;SDS011;23184;51.902;12.836;2023-11-18T08:08:46;25.15;;;12.25;;
37299;SDS011;23184;51.902;12.836;2023-11-18T08:11:13;23.35;;;11.27;;
37299;SDS011;23184;51.902;12.836;2023-11-18T08:13:38;22.73;;;11.23;;
37299;SDS011;23184;51.902;12.836;2023-11-18T08:16:05;19.90;;;10.63;;
37299;SDS011;23184;51.902;12.836;2023-11-18T08:18:33;22.23;;;11.20;;
37299;SDS011;23184;51.902;12.836;2023-11-18T08:21:00;22.85;;;12.48;;
37299;SDS011;23184;51.902;12.836;2023-11-18T08:23:26;18.75;;;10.55;;
37299;SDS011;23184;51.902;12.836;2023-11-18T08:25:56;19.85;;;11.48;;
37299;SDS011;23184;51.902;12.836;2023-11-18T08:28:22;21.20;;;11.55;;
37299;SDS011;23184;51.902;12.836;2023-11-18T08:30:47;22.13;;;11.88;;
37299;SDS011;23184;51.902;12.836;2023-11-18T08:33:14;22.38;;;11.15;;
37299;SDS011;23184;51.902;12.836;2023-11-18T08:35:39;19.90;;;10.80;;
37299;SDS011;23184;51.902;12.836;2023-11-18T08:38:07;19.63;;;10.52;;
37299;SDS011;23184;51.902;12.836;2023-11-18T08:40:32;20.73;;;12.10;;
37299;SDS011;23184;51.902;12.836;2023-11-18T08:42:59;22.42;;;12.00;;
37299;SDS011;23184;51.902;12.836;2023-11-18T08:45:26;20.38;;;11.00;;
37299;SDS011;23184;51.902;12.836;2023-11-18T08:47:54;22.33;;;11.77;;
37299;SDS011;23184;51.902;12.836;2023-11-18T08:50:20;22.02;;;11.25;;
37299;SDS011;23184;51.902;12.836;2023-11-18T08:52:49;24.70;;;11.32;;
37299;SDS011;23184;51.902;12.836;2023-11-18T08:55:18;17.88;;;10.95;;
37299;SDS011;23184;51.902;12.836;2023-11-18T08:57:46;23.98;;;12.40;;
37299;SDS011;23184;51.902;12.836;2023-11-18T09:00:26;21.55;;;11.90;;
37299;SDS011;23184;51.902;12.836;2023-11-18T09:03:11;26.50;;;12.88;;
37299;SDS011;23184;51.902;12.836;2023-11-18T09:05:49;23.73;;;12.95;;
37299;SDS011;23184;51.902;12.836;2023-11-18T09:08:25;28.13;;;12.48;;
37299;SDS011;23184;51.902;12.836;2023-11-18T09:11:00;25.45;;;14.00;;
37299;SDS011;23184;51.902;12.836;2023-11-18T09:13:36;43.55;;;20.73;;
37299;SDS011;23184;51.902;12.836;2023-11-18T09:16:04;22.50;;;11.98;;
37299;SDS011;23184;51.902;12.836;2023-11-18T09:18:34;33.15;;;16.55;;
37299;SDS011;23184;51.902;12.836;2023-11-18T09:21:05;22.35;;;12.95;;
37299;SDS011;23184;51.902;12.836;2023-11-18T09:23:32;22.30;;;12.30;;
37299;SDS011;23184;51.902;12.836;2023-11-18T09:26:02;20.95;;;10.88;;
37299;SDS011;23184;51.902;12.836;2023-11-18T09:28:32;24.05;;;12.32;;
37299;SDS011;23184;51.902;12.836;2023-11-18T09:31:00;23.02;;;11.38;;
37299;SDS011;23184;51.902;12.836;2023-11-18T09:33:28;24.67;;;11.75;;
37299;SDS011;23184;51.902;12.836;2023-11-18T09:36:04;22.05;;;12.20;;
37299;SDS011;23184;51.902;12.836;2023-11-18T09:38:37;21.00;;;11.20;;
37299;SDS011;23184;51.902;12.836;2023-11-18T09:41:05;21.50;;;11.63;;
37299;SDS011;23184;51.902;12.836;2023-11-18T09:43:36;24.08;;;12.20;;
37299;SDS011;23184;51.902;12.836;2023-11-18T09:46:10;26.35;;;14.65;;
37299;SDS011;23184;51.902;12.836;2023-11-18T09:48:44;29.70;;;14.32;;
37299;SDS011;23184;51.902;12.836;2023-11-18T09:51:25;22.75;;;11.80;;
37299;SDS011;23184;51.902;12.836;2023-11-18T09:54:01;21.80;;;10.75;;
37299;SDS011;23184;51.902;12.836;2023-11-18T09:56:41;26.58;;;12.63;;
37299;SDS011;23184;51.902;12.836;2023-11-18T09:59:11;24.50;;;12.70;;
37299;SDS011;23184;51.902;12.836;2023-11-18T10:01:41;25.13;;;11.63;;
37299;SDS011;23184;51.902;12.836;2023-11-18T10:04:09;23.80;;;13.10;;
37299;SDS011;23184;51.902;12.836;2023-11-18T10:06:35;17.33;;;10.82;;
37299;SDS011;23184;51.902;12.836;2023-11-18T10:09:05;21.27;;;12.90;;
37299;SDS011;23184;51.902;12.836;2023-11-18T10:11:44;19.52;;;11.88;;
37299;SDS011;23184;51.902;12.836;2023-11-18T10:14:15;18.10;;;10.95;;
37299;SDS011;23184;51.902;12.836;2023-11-18T10:16:42;19.70;;;11.18;;
37299;SDS011;23184;51.902;12.836;2023-11-18T10:19:11;23.27;;;12.65;;
37299;SDS011;23184;51.902;12.836;2023-11-18T10:21:37;21.52;;;11.63;;
37299;SDS011;23184;51.902;12.836;2023-11-18T10:24:06;25.98;;;14.50;;
37299;SDS011;23184;51.902;12.836;2023-11-18T10:26:44;19.50;;;10.60;;
37299;SDS011;23184;51.902;12.836;2023-11-18T10:29:19;17.92;;;9.95;;
37299;SDS011;23184;51.902;12.836;2023-11-18T10:31:45;20.08;;;10.93;;
37299;SDS011;23184;51.902;12.836;2023-11-18T10:34:13;17.02;;;10.38;;
37299;SDS011;23184;51.902;12.836;2023-11-18T10:36:41;19.40;;;10.35;;
37299;SDS011;23184;51.902;12.836;2023-11-18T10:39:10;19.75;;;11.27;;
37299;SDS011;23184;51.902;12.836;2023-11-18T10:41:41;19.15;;;10.55;;
37299;SDS011;23184;51.902;12.836;2023-11-18T10:44:08;20.20;;;11.02;;
37299;SDS011;23184;51.902;12.836;2023-11-18T10:46:52;21.77;;;10.90;;
37299;SDS011;23184;51.902;12.836;2023-11-18T10:49:20;17.85;;;9.63;;
37299;SDS011;23184;51.902;12.836;2023-11-18T10:51:46;18.75;;;9.95;;
37299;SDS011;23184;51.902;12.836;2023-11-18T10:54:12;16.27;;;8.77;;
37299;SDS011;23184;51.902;12.836;2023-11-18T10:56:49;15.88;;;8.80;;
37299;SDS011;23184;51.902;12.836;2023-11-18T10:59:15;18.07;;;9.73;;
37299;SDS011;23184;51.902;12.836;2023-11-18T11:01:41;14.95;;;9.55;;
37299;SDS011;23184;51.902;12.836;2023-11-18T11:04:11;13.68;;;8.40;;
37299;SDS011;23184;51.902;12.836;2023-11-18T11:06:41;15.10;;;7.60;;
37299;SDS011;23184;51.902;12.836;2023-11-18T11:09:07;11.00;;;5.72;;
37299;SDS011;23184;51.902;12.836;2023-11-18T11:11:48;12.52;;;5.97;;
37299;SDS011;23184;51.902;12.836;2023-11-18T11:14:19;9.93;;;5.50;;
37299;SDS011;23184;51.902;12.836;2023-11-18T11:16:53;9.38;;;5.18;;
37299;SDS011;23184;51.902;12.836;2023-11-18T11:21:59;10.98;;;4.45;;
37299;SDS011;23184;51.902;12.836;2023-11-18T11:24:35;5.70;;;4.22;;
37299;SDS011;23184;51.902;12.836;2023-11-18T11:27:14;6.50;;;4.22;;
37299;SDS011;23184;51.902;12.836;2023-11-18T11:30:05;5.28;;;3.45;;
37299;SDS011;23184;51.902;12.836;2023-11-18T11:32:39;5.90;;;3.47;;
37299;SDS011;23184;51.902;12.836;2023-11-18T11:35:16;5.50;;;3.30;;
37299;SDS011;23184;51.902;12.836;2023-11-18T11:37:47;5.32;;;3.35;;
37299;SDS011;23184;51.902;12.836;2023-11-18T11:40:13;5.45;;;2.45;;
37299;SDS011;23184;51.902;12.836;2023-11-18T11:42:46;3.73;;;2.33;;
37299;SDS011;23184;51.902;12.836;2023-11-18T11:45:22;3.30;;;2.15;;
37299;SDS011;23184;51.902;12.836;2023-11-18T11:47:53;3.38;;;1.98;;
37299;SDS011;23184;51.902;12.836;2023-11-18T11:50:43;3.92;;;2.47;;
37299;SDS011;23184;51.902;12.836;2023-11-18T11:53:22;3.70;;;2.53;;
37299;SDS011;23184;51.902;12.836;2023-11-18T11:55:52;3.78;;;2.40;;
37299;SDS011;23184;51.902;12.836;2023-11-18T11:58:30;4.50;;;2.90;;
37299;SDS011;23184;51.902;12.836;2023-11-18T12:01:00;5.38;;;3.05;;
37299;SDS011;23184;51.902;12.836;2023-11-18T12:03:32;4.68;;;3.20;;
37299;SDS011;23184;51.902;12.836;2023-11-18T12:06:03;5.97;;;4.10;;
37299;SDS011;23184;51.902;12.836;2023-11-18T12:08:34;6.00;;;3.20;;
37299;SDS011;23184;51.902;12.836;2023-11-18T12:11:01;6.57;;;3.28;;
37299;SDS011;23184;51.902;12.836;2023-11-18T12:13:27;5.55;;;3.55;;
37299;SDS011;23184;51.902;12.836;2023-11-18T12:15:56;4.68;;;3.20;;
37299;SDS011;23184;51.902;12.836;2023-11-18T12:18:23;4.72;;;3.08;;
37299;SDS011;23184;51.902;12.836;2023-11-18T12:20:49;7.30;;;3.80;;
37299;SDS011;23184;51.902;12.836;2023-11-18T12:23:22;5.03;;;3.28;;
37299;SDS011;23184;51.902;12.836;2023-11-18T12:25:49;4.55;;;2.63;;
37299;SDS011;23184;51.902;12.836;2023-11-18T12:28:19;4.18;;;2.53;;
37299;SDS011;23184;51.902;12.836;2023-11-18T12:30:52;2.88;;;1.80;;
37299;SDS011;23184;51.902;12.836;2023-11-18T12:33:22;2.33;;;1.30;;
37299;SDS011;23184;51.902;12.836;2023-11-18T12:47:04;5.35;;;2.80;;
37299;SDS011;23184;51.902;12.836;2023-11-18T12:49:40;5.20;;;2.83;;
37299;SDS011;23184;51.902;12.836;2023-11-18T12:52:07;2.65;;;1.95;;
37299;SDS011;23184;51.902;12.836;2023-11-18T12:54:34;4.00;;;2.38;;
37299;SDS011;23184;51.902;12.836;2023-11-18T12:57:03;5.35;;;2.22;;
37299;SDS011;23184;51.902;12.836;2023-11-18T12:59:32;3.35;;;2.30;;
37299;SDS011;23184;51.902;12.836;2023-11-18T13:01:58;3.45;;;2.20;;
37299;SDS011;23184;51.902;12.836;2023-11-18T13:04:28;5.45;;;2.83;;
37299;SDS011;23184;51.902;12.836;2023-11-18T13:06:55;3.50;;;2.58;;
37299;SDS011;23184;51.902;12.836;2023-11-18T13:09:22;4.88;;;2.60;;
37299;SDS011;23184;51.902;12.836;2023-11-18T13:11:52;3.55;;;2.30;;
37299;SDS011;23184;51.902;12.836;2023-11-18T13:14:21;3.72;;;2.00;;
37299;SDS011;23184;51.902;12.836;2023-11-18T13:16:53;3.00;;;1.80;;
37299;SDS011;23184;51.902;12.836;2023-11-18T13:19:27;4.03;;;1.92;;
37299;SDS011;23184;51.902;12.836;2023-11-18T13:21:57;2.75;;;1.85;;
37299;SDS011;23184;51.902;12.836;2023-11-18T13:24:29;2.00;;;1.30;;
37299;SDS011;23184;51.902;12.836;2023-11-18T13:26:55;3.47;;;2.08;;
37299;SDS011;23184;51.902;12.836;2023-11-18T13:29:25;3.80;;;2.15;;
37299;SDS011;23184;51.902;12.836;2023-11-18T13:31:50;2.80;;;2.30;;
37299;SDS011;23184;51.902;12.836;2023-11-18T13:34:17;2.92;;;1.70;;
37299;SDS011;23184;51.902;12.836;2023-11-18T13:36:43;2.45;;;1.65;;
37299;SDS011;23184;51.902;12.836;2023-11-18T13:39:15;3.45;;;2.17;;
37299;SDS011;23184;51.902;12.836;2023-11-18T13:41:42;3.38;;;1.83;;
37299;SDS011;23184;51.902;12.836;2023-11-18T13:44:11;2.03;;;1.50;;
37299;SDS011;23184;51.902;12.836;2023-11-18T13:46:41;2.03;;;1.50;;
37299;SDS011;23184;51.902;12.836;2023-11-18T13:49:06;2.22;;;1.50;;
37299;SDS011;23184;51.902;12.836;2023-11-18T13:51:33;3.30;;;2.13;;
37299;SDS011;23184;51.902;12.836;2023-11-18T13:54:00;2.90;;;1.80;;
37299;SDS011;23184;51.902;12.836;2023-11-18T13:56:26;2.80;;;2.20;;
37299;SDS011;23184;51.902;12.836;2023-11-18T13:58:53;2.13;;;1.50;;
37299;SDS011;23184;51.902;12.836;2023-11-18T14:01:19;2.80;;;1.55;;
37299;SDS011;23184;51.902;12.836;2023-11-18T14:03:46;2.75;;;1.90;;
37299;SDS011;23184;51.902;12.836;2023-11-18T14:06:12;6.35;;;2.53;;
37299;SDS011;23184;51.902;12.836;2023-11-18T14:08:42;3.35;;;2.38;;
37299;SDS011;23184;51.902;12.836;2023-11-18T14:11:08;3.58;;;2.38;;
37299;SDS011;23184;51.902;12.836;2023-11-18T14:13:34;3.78;;;2.60;;
37299;SDS011;23184;51.902;12.836;2023-11-18T14:16:01;6.10;;;2.67;;
37299;SDS011;23184;51.902;12.836;2023-11-18T14:18:27;5.90;;;2.80;;
37299;SDS011;23184;51.902;12.836;2023-11-18T14:20:53;4.65;;;2.47;;
37299;SDS011;23184;51.902;12.836;2023-11-18T14:23:19;5.63;;;2.83;;
37299;SDS011;23184;51.902;12.836;2023-11-18T14:25:46;5.28;;;3.20;;
37299;SDS011;23184;51.902;12.836;2023-11-18T14:28:12;5.93;;;3.47;;
37299;SDS011;23184;51.902;12.836;2023-11-18T14:30:38;6.22;;;3.35;;
37299;SDS011;23184;51.902;12.836;2023-11-18T14:33:04;6.55;;;3.70;;
37299;SDS011;23184;51.902;12.836;2023-11-18T14:35:31;7.45;;;4.40;;
37299;SDS011;23184;51.902;12.836;2023-11-18T14:37:57;7.25;;;4.72;;
37299;SDS011;23184;51.902;12.836;2023-11-18T14:40:23;11.55;;;5.47;;
37299;SDS011;23184;51.902;12.836;2023-11-18T14:42:53;10.57;;;5.45;;